Rodeo, California
Current Conditions -  °F | °C
As of 3:53 PM on Tuesday 25 Nov 2014 (Local Time) from KCCR Reporting Station
Clear Clear  
Wind Chill: 64°   Ceiling: Unl
Heat Index: 64°   Visibility: 8mi
Dew Point: 47°   Wind: 9mph
Humidity: 54%   Direction: 40°NE
Pressure: 30.38"   Gusts: NA
Location:  38.03°N, 122.26°W
Report Text: KCCR 252353Z 04008KT 8SM CLR 18/08 A3038 RMK AO2 SLP274 T01780083 10183 20139 56012
Loading
Personal Weather Stations






























Interactive Weather Map New forecast layout! Learn more

10-Day Weather Forecast

Advertisements
Track Severe Weather on mobile